sensor_id;sensor_type;location;lat;lon;timestamp;P1;durP1;ratioP1;P2;durP2;ratioP2
37771;SDS011;23610;59.380;24.642;2024-03-23T00:55:21;4.35;;;2.17;;
37771;SDS011;23610;59.380;24.642;2024-03-23T01:00:49;10.77;;;2.67;;
37771;SDS011;23610;59.380;24.642;2024-03-23T01:06:05;10.77;;;2.30;;
37771;SDS011;23610;59.380;24.642;2024-03-23T01:11:33;5.22;;;2.45;;
37771;SDS011;23610;59.380;24.642;2024-03-23T01:16:49;14.52;;;3.08;;
37771;SDS011;23610;59.380;24.642;2024-03-23T01:22:17;3.15;;;1.90;;
37771;SDS011;23610;59.380;24.642;2024-03-23T01:27:33;11.18;;;3.67;;
37771;SDS011;23610;59.380;24.642;2024-03-23T01:33:02;7.03;;;2.85;;
37771;SDS011;23610;59.380;24.642;2024-03-23T01:43:46;10.07;;;2.75;;
37771;SDS011;23610;59.380;24.642;2024-03-23T01:49:15;11.05;;;2.95;;
37771;SDS011;23610;59.380;24.642;2024-03-23T01:54:31;14.40;;;2.58;;
37771;SDS011;23610;59.380;24.642;2024-03-23T01:59:59;17.30;;;3.42;;
37771;SDS011;23610;59.380;24.642;2024-03-23T02:05:15;14.55;;;2.97;;
37771;SDS011;23610;59.380;24.642;2024-03-23T02:10:43;9.77;;;2.80;;
37771;SDS011;23610;59.380;24.642;2024-03-23T02:16:19;18.55;;;3.60;;
37771;SDS011;23610;59.380;24.642;2024-03-23T02:21:47;12.70;;;3.05;;
37771;SDS011;23610;59.380;24.642;2024-03-23T02:27:03;13.23;;;3.05;;
37771;SDS011;23610;59.380;24.642;2024-03-23T02:32:31;19.33;;;3.83;;
37771;SDS011;23610;59.380;24.642;2024-03-23T02:37:47;19.45;;;3.80;;
37771;SDS011;23610;59.380;24.642;2024-03-23T02:43:16;10.95;;;2.78;;
37771;SDS011;23610;59.380;24.642;2024-03-23T02:48:32;12.48;;;2.90;;
37771;SDS011;23610;59.380;24.642;2024-03-23T02:54:00;10.00;;;2.83;;
37771;SDS011;23610;59.380;24.642;2024-03-23T02:59:16;14.93;;;2.67;;
37771;SDS011;23610;59.380;24.642;2024-03-23T03:04:44;10.30;;;3.05;;
37771;SDS011;23610;59.380;24.642;2024-03-23T03:10:00;13.02;;;3.88;;
37771;SDS011;23610;59.380;24.642;2024-03-23T03:15:31;13.40;;;2.28;;
37771;SDS011;23610;59.380;24.642;2024-03-23T03:20:47;14.38;;;2.78;;
37771;SDS011;23610;59.380;24.642;2024-03-23T03:26:18;19.08;;;2.85;;
37771;SDS011;23610;59.380;24.642;2024-03-23T03:31:34;14.40;;;2.30;;
37771;SDS011;23610;59.380;24.642;2024-03-23T03:37:02;24.73;;;3.17;;
37771;SDS011;23610;59.380;24.642;2024-03-23T03:42:18;9.48;;;2.28;;
37771;SDS011;23610;59.380;24.642;2024-03-23T03:47:47;11.10;;;2.55;;
37771;SDS011;23610;59.380;24.642;2024-03-23T03:53:03;14.88;;;2.92;;
37771;SDS011;23610;59.380;24.642;2024-03-23T03:58:31;10.75;;;1.65;;
37771;SDS011;23610;59.380;24.642;2024-03-23T04:03:47;20.75;;;2.33;;
37771;SDS011;23610;59.380;24.642;2024-03-23T04:09:15;5.22;;;1.88;;
37771;SDS011;23610;59.380;24.642;2024-03-23T04:14:30;27.88;;;4.50;;
37771;SDS011;23610;59.380;24.642;2024-03-23T04:20:00;15.13;;;5.32;;
37771;SDS011;23610;59.380;24.642;2024-03-23T04:25:16;20.30;;;8.23;;
37771;SDS011;23610;59.380;24.642;2024-03-23T04:30:45;41.50;;;20.88;;
37771;SDS011;23610;59.380;24.642;2024-03-23T04:36:00;46.70;;;21.08;;
37771;SDS011;23610;59.380;24.642;2024-03-23T04:41:30;26.23;;;10.30;;
37771;SDS011;23610;59.380;24.642;2024-03-23T04:46:46;27.80;;;9.32;;
37771;SDS011;23610;59.380;24.642;2024-03-23T04:52:15;18.70;;;5.00;;
37771;SDS011;23610;59.380;24.642;2024-03-23T04:57:30;19.42;;;4.72;;
37771;SDS011;23610;59.380;24.642;2024-03-23T05:03:00;16.50;;;3.03;;
37771;SDS011;23610;59.380;24.642;2024-03-23T05:08:16;15.70;;;3.10;;
37771;SDS011;23610;59.380;24.642;2024-03-23T05:13:44;18.13;;;2.95;;
37771;SDS011;23610;59.380;24.642;2024-03-23T05:19:00;16.65;;;2.67;;
37771;SDS011;23610;59.380;24.642;2024-03-23T05:24:28;24.38;;;3.40;;
37771;SDS011;23610;59.380;24.642;2024-03-23T05:29:43;12.95;;;3.83;;
37771;SDS011;23610;59.380;24.642;2024-03-23T05:35:12;17.65;;;3.70;;
37771;SDS011;23610;59.380;24.642;2024-03-23T05:40:27;16.13;;;3.20;;
37771;SDS011;23610;59.380;24.642;2024-03-23T05:45:58;11.80;;;3.22;;
37771;SDS011;23610;59.380;24.642;2024-03-23T05:51:14;16.08;;;2.97;;
37771;SDS011;23610;59.380;24.642;2024-03-23T05:56:43;12.30;;;2.40;;
37771;SDS011;23610;59.380;24.642;2024-03-23T06:01:58;17.67;;;2.70;;
37771;SDS011;23610;59.380;24.642;2024-03-23T06:07:27;11.73;;;4.45;;
37771;SDS011;23610;59.380;24.642;2024-03-23T06:12:42;11.48;;;2.88;;
37771;SDS011;23610;59.380;24.642;2024-03-23T06:18:12;7.63;;;2.25;;
37771;SDS011;23610;59.380;24.642;2024-03-23T06:23:27;22.13;;;3.75;;
37771;SDS011;23610;59.380;24.642;2024-03-23T06:28:57;16.35;;;2.90;;
37771;SDS011;23610;59.380;24.642;2024-03-23T06:34:12;12.70;;;2.67;;
37771;SDS011;23610;59.380;24.642;2024-03-23T06:39:42;20.45;;;4.53;;
37771;SDS011;23610;59.380;24.642;2024-03-23T06:45:06;20.70;;;4.35;;
37771;SDS011;23610;59.380;24.642;2024-03-23T06:50:35;15.80;;;4.20;;
37771;SDS011;23610;59.380;24.642;2024-03-23T06:55:51;25.42;;;7.32;;
37771;SDS011;23610;59.380;24.642;2024-03-23T07:01:21;20.52;;;6.60;;
37771;SDS011;23610;59.380;24.642;2024-03-23T07:06:42;20.27;;;4.72;;
37771;SDS011;23610;59.380;24.642;2024-03-23T07:12:12;23.48;;;8.15;;
37771;SDS011;23610;59.380;24.642;2024-03-23T07:17:47;20.02;;;3.92;;
37771;SDS011;23610;59.380;24.642;2024-03-23T07:23:16;20.73;;;6.75;;
37771;SDS011;23610;59.380;24.642;2024-03-23T07:28:31;25.92;;;11.02;;
37771;SDS011;23610;59.380;24.642;2024-03-23T07:34:03;18.83;;;7.72;;
37771;SDS011;23610;59.380;24.642;2024-03-23T07:39:19;13.98;;;3.13;;
37771;SDS011;23610;59.380;24.642;2024-03-23T07:44:48;20.17;;;5.68;;
37771;SDS011;23610;59.380;24.642;2024-03-23T07:50:04;14.60;;;3.05;;
37771;SDS011;23610;59.380;24.642;2024-03-23T07:55:32;11.85;;;3.90;;
37771;SDS011;23610;59.380;24.642;2024-03-23T08:00:47;15.80;;;5.90;;
37771;SDS011;23610;59.380;24.642;2024-03-23T08:06:17;18.45;;;4.45;;
37771;SDS011;23610;59.380;24.642;2024-03-23T08:11:33;12.95;;;3.58;;
37771;SDS011;23610;59.380;24.642;2024-03-23T08:17:04;20.92;;;3.25;;
37771;SDS011;23610;59.380;24.642;2024-03-23T08:22:19;16.27;;;2.42;;
37771;SDS011;23610;59.380;24.642;2024-03-23T08:27:48;13.77;;;3.05;;
37771;SDS011;23610;59.380;24.642;2024-03-23T08:33:10;19.25;;;4.05;;
37771;SDS011;23610;59.380;24.642;2024-03-23T08:38:39;12.50;;;3.88;;
37771;SDS011;23610;59.380;24.642;2024-03-23T08:43:55;20.35;;;3.20;;
37771;SDS011;23610;59.380;24.642;2024-03-23T08:49:23;11.10;;;2.67;;
37771;SDS011;23610;59.380;24.642;2024-03-23T08:54:38;14.15;;;2.67;;
37771;SDS011;23610;59.380;24.642;2024-03-23T09:00:07;17.27;;;2.95;;
37771;SDS011;23610;59.380;24.642;2024-03-23T09:05:24;16.52;;;3.88;;
37771;SDS011;23610;59.380;24.642;2024-03-23T09:10:56;9.00;;;2.15;;
37771;SDS011;23610;59.380;24.642;2024-03-23T09:16:11;19.42;;;3.90;;
37771;SDS011;23610;59.380;24.642;2024-03-23T09:21:40;19.65;;;7.13;;
37771;SDS011;23610;59.380;24.642;2024-03-23T09:26:55;12.90;;;3.25;;
37771;SDS011;23610;59.380;24.642;2024-03-23T09:32:24;7.28;;;3.38;;
37771;SDS011;23610;59.380;24.642;2024-03-23T09:37:52;16.90;;;3.28;;
37771;SDS011;23610;59.380;24.642;2024-03-23T09:43:07;7.88;;;1.90;;
37771;SDS011;23610;59.380;24.642;2024-03-23T09:48:36;9.20;;;2.63;;
37771;SDS011;23610;59.380;24.642;2024-03-23T09:53:51;5.72;;;2.42;;
37771;SDS011;23610;59.380;24.642;2024-03-23T09:59:20;7.63;;;2.00;;
37771;SDS011;23610;59.380;24.642;2024-03-23T10:04:36;8.20;;;1.65;;
37771;SDS011;23610;59.380;24.642;2024-03-23T10:10:10;11.43;;;2.33;;
37771;SDS011;23610;59.380;24.642;2024-03-23T10:15:45;10.82;;;2.22;;
37771;SDS011;23610;59.380;24.642;2024-03-23T10:21:21;10.20;;;1.65;;
37771;SDS011;23610;59.380;24.642;2024-03-23T10:26:36;8.57;;;2.17;;
37771;SDS011;23610;59.380;24.642;2024-03-23T10:32:09;9.25;;;1.45;;
37771;SDS011;23610;59.380;24.642;2024-03-23T10:37:25;16.08;;;3.65;;
37771;SDS011;23610;59.380;24.642;2024-03-23T10:42:55;7.88;;;1.85;;
37771;SDS011;23610;59.380;24.642;2024-03-23T10:48:13;10.27;;;2.67;;
37771;SDS011;23610;59.380;24.642;2024-03-23T10:53:42;8.23;;;2.22;;
37771;SDS011;23610;59.380;24.642;2024-03-23T10:58:58;20.85;;;3.40;;
37771;SDS011;23610;59.380;24.642;2024-03-23T11:04:31;7.45;;;1.38;;
37771;SDS011;23610;59.380;24.642;2024-03-23T11:09:47;8.70;;;1.80;;
37771;SDS011;23610;59.380;24.642;2024-03-23T11:15:16;5.32;;;1.38;;
37771;SDS011;23610;59.380;24.642;2024-03-23T11:20:32;13.57;;;1.98;;
37771;SDS011;23610;59.380;24.642;2024-03-23T11:26:01;7.70;;;1.90;;
37771;SDS011;23610;59.380;24.642;2024-03-23T11:31:20;16.02;;;3.10;;
37771;SDS011;23610;59.380;24.642;2024-03-23T11:36:49;13.15;;;3.17;;
37771;SDS011;23610;59.380;24.642;2024-03-23T11:42:15;12.48;;;3.40;;
37771;SDS011;23610;59.380;24.642;2024-03-23T11:47:44;9.38;;;2.50;;
37771;SDS011;23610;59.380;24.642;2024-03-23T11:53:21;7.82;;;1.75;;
37771;SDS011;23610;59.380;24.642;2024-03-23T11:58:52;20.10;;;6.38;;
37771;SDS011;23610;59.380;24.642;2024-03-23T12:04:07;15.98;;;3.00;;
37771;SDS011;23610;59.380;24.642;2024-03-23T12:09:36;15.60;;;1.92;;
37771;SDS011;23610;59.380;24.642;2024-03-23T12:15:01;13.43;;;3.10;;
37771;SDS011;23610;59.380;24.642;2024-03-23T12:20:34;10.20;;;2.38;;
37771;SDS011;23610;59.380;24.642;2024-03-23T12:25:49;8.35;;;2.00;;
37771;SDS011;23610;59.380;24.642;2024-03-23T12:31:18;8.27;;;1.40;;
37771;SDS011;23610;59.380;24.642;2024-03-23T12:36:33;5.55;;;1.40;;
37771;SDS011;23610;59.380;24.642;2024-03-23T12:42:02;8.93;;;1.95;;
37771;SDS011;23610;59.380;24.642;2024-03-23T12:47:17;7.97;;;2.05;;
37771;SDS011;23610;59.380;24.642;2024-03-23T12:52:46;15.13;;;4.70;;
37771;SDS011;23610;59.380;24.642;2024-03-23T12:58:01;8.23;;;2.47;;
37771;SDS011;23610;59.380;24.642;2024-03-23T13:03:30;13.20;;;2.25;;
37771;SDS011;23610;59.380;24.642;2024-03-23T13:08:45;11.45;;;2.58;;
37771;SDS011;23610;59.380;24.642;2024-03-23T13:14:15;12.73;;;2.15;;
37771;SDS011;23610;59.380;24.642;2024-03-23T13:19:30;10.23;;;2.67;;
37771;SDS011;23610;59.380;24.642;2024-03-23T13:24:59;16.70;;;3.53;;
37771;SDS011;23610;59.380;24.642;2024-03-23T13:30:14;15.20;;;3.08;;
37771;SDS011;23610;59.380;24.642;2024-03-23T13:35:50;14.52;;;2.33;;
37771;SDS011;23610;59.380;24.642;2024-03-23T13:41:05;17.15;;;2.72;;
37771;SDS011;23610;59.380;24.642;2024-03-23T13:46:34;17.00;;;4.60;;
37771;SDS011;23610;59.380;24.642;2024-03-23T13:51:49;17.95;;;3.10;;
37771;SDS011;23610;59.380;24.642;2024-03-23T13:57:18;16.55;;;5.57;;
37771;SDS011;23610;59.380;24.642;2024-03-23T14:02:34;18.48;;;4.15;;
37771;SDS011;23610;59.380;24.642;2024-03-23T14:08:04;16.30;;;4.28;;
37771;SDS011;23610;59.380;24.642;2024-03-23T14:13:20;19.80;;;3.08;;
37771;SDS011;23610;59.380;24.642;2024-03-23T14:18:49;9.60;;;2.22;;
37771;SDS011;23610;59.380;24.642;2024-03-23T14:24:04;12.82;;;3.58;;
37771;SDS011;23610;59.380;24.642;2024-03-23T14:29:33;14.43;;;3.33;;
37771;SDS011;23610;59.380;24.642;2024-03-23T14:34:48;12.98;;;3.13;;
37771;SDS011;23610;59.380;24.642;2024-03-23T14:40:17;22.67;;;4.15;;
37771;SDS011;23610;59.380;24.642;2024-03-23T14:45:32;16.58;;;3.60;;
37771;SDS011;23610;59.380;24.642;2024-03-23T14:51:02;14.07;;;3.03;;
37771;SDS011;23610;59.380;24.642;2024-03-23T14:56:18;14.68;;;3.25;;
37771;SDS011;23610;59.380;24.642;2024-03-23T15:01:47;12.00;;;3.22;;
37771;SDS011;23610;59.380;24.642;2024-03-23T15:07:02;20.58;;;3.28;;
37771;SDS011;23610;59.380;24.642;2024-03-23T15:12:31;21.77;;;3.53;;
37771;SDS011;23610;59.380;24.642;2024-03-23T15:17:46;14.75;;;2.63;;
37771;SDS011;23610;59.380;24.642;2024-03-23T15:23:15;7.65;;;2.40;;
37771;SDS011;23610;59.380;24.642;2024-03-23T15:28:30;15.25;;;2.92;;
37771;SDS011;23610;59.380;24.642;2024-03-23T15:34:01;22.15;;;5.63;;
37771;SDS011;23610;59.380;24.642;2024-03-23T15:39:30;15.43;;;4.72;;
37771;SDS011;23610;59.380;24.642;2024-03-23T15:44:46;19.65;;;3.42;;
37771;SDS011;23610;59.380;24.642;2024-03-23T15:50:15;13.88;;;4.22;;
37771;SDS011;23610;59.380;24.642;2024-03-23T15:55:31;16.85;;;5.50;;
37771;SDS011;23610;59.380;24.642;2024-03-23T16:01:00;24.70;;;5.07;;
37771;SDS011;23610;59.380;24.642;2024-03-23T16:06:18;13.50;;;4.00;;
37771;SDS011;23610;59.380;24.642;2024-03-23T16:11:47;14.02;;;3.30;;
37771;SDS011;23610;59.380;24.642;2024-03-23T16:17:02;22.05;;;5.28;;
37771;SDS011;23610;59.380;24.642;2024-03-23T16:22:31;15.27;;;4.15;;
37771;SDS011;23610;59.380;24.642;2024-03-23T16:27:46;27.33;;;6.78;;
37771;SDS011;23610;59.380;24.642;2024-03-23T16:33:15;18.70;;;6.35;;
37771;SDS011;23610;59.380;24.642;2024-03-23T16:38:31;20.48;;;5.63;;
37771;SDS011;23610;59.380;24.642;2024-03-23T16:44:03;25.40;;;6.82;;
37771;SDS011;23610;59.380;24.642;2024-03-23T16:49:19;28.92;;;9.77;;
37771;SDS011;23610;59.380;24.642;2024-03-23T16:54:48;24.05;;;10.10;;
37771;SDS011;23610;59.380;24.642;2024-03-23T17:00:03;28.85;;;7.72;;
37771;SDS011;23610;59.380;24.642;2024-03-23T17:05:37;21.33;;;5.70;;
37771;SDS011;23610;59.380;24.642;2024-03-23T17:10:57;31.60;;;9.55;;
37771;SDS011;23610;59.380;24.642;2024-03-23T17:16:29;20.10;;;4.40;;
37771;SDS011;23610;59.380;24.642;2024-03-23T17:21:45;23.17;;;5.63;;
37771;SDS011;23610;59.380;24.642;2024-03-23T17:27:14;27.48;;;5.15;;
37771;SDS011;23610;59.380;24.642;2024-03-23T17:32:29;24.45;;;6.00;;
37771;SDS011;23610;59.380;24.642;2024-03-23T17:37:58;23.63;;;5.65;;
37771;SDS011;23610;59.380;24.642;2024-03-23T17:43:13;18.63;;;4.80;;
37771;SDS011;23610;59.380;24.642;2024-03-23T17:48:42;23.08;;;7.85;;
37771;SDS011;23610;59.380;24.642;2024-03-23T17:53:57;15.35;;;6.38;;
37771;SDS011;23610;59.380;24.642;2024-03-23T17:59:29;23.88;;;8.27;;
37771;SDS011;23610;59.380;24.642;2024-03-23T18:04:44;25.02;;;6.90;;
37771;SDS011;23610;59.380;24.642;2024-03-23T18:10:14;15.93;;;4.47;;
37771;SDS011;23610;59.380;24.642;2024-03-23T18:15:29;23.23;;;5.82;;
37771;SDS011;23610;59.380;24.642;2024-03-23T18:21:04;26.58;;;6.50;;
37771;SDS011;23610;59.380;24.642;2024-03-23T18:26:19;26.73;;;4.82;;
37771;SDS011;23610;59.380;24.642;2024-03-23T18:31:48;24.23;;;5.40;;
37771;SDS011;23610;59.380;24.642;2024-03-23T18:37:03;19.67;;;5.15;;
37771;SDS011;23610;59.380;24.642;2024-03-23T18:42:32;18.23;;;4.72;;
37771;SDS011;23610;59.380;24.642;2024-03-23T18:47:47;11.70;;;3.72;;
37771;SDS011;23610;59.380;24.642;2024-03-23T18:53:16;19.77;;;4.45;;
37771;SDS011;23610;59.380;24.642;2024-03-23T18:58:31;16.98;;;3.95;;
37771;SDS011;23610;59.380;24.642;2024-03-23T19:04:00;21.35;;;2.80;;
37771;SDS011;23610;59.380;24.642;2024-03-23T19:09:15;19.85;;;4.75;;
37771;SDS011;23610;59.380;24.642;2024-03-23T19:14:45;24.33;;;4.65;;
37771;SDS011;23610;59.380;24.642;2024-03-23T19:20:00;33.33;;;9.15;;
37771;SDS011;23610;59.380;24.642;2024-03-23T19:25:30;27.65;;;9.15;;
37771;SDS011;23610;59.380;24.642;2024-03-23T19:30:45;20.63;;;4.80;;
37771;SDS011;23610;59.380;24.642;2024-03-23T19:36:14;16.35;;;3.50;;
37771;SDS011;23610;59.380;24.642;2024-03-23T19:41:29;16.00;;;2.42;;
37771;SDS011;23610;59.380;24.642;2024-03-23T19:47:02;18.55;;;4.10;;
37771;SDS011;23610;59.380;24.642;2024-03-23T19:52:19;18.58;;;4.15;;
37771;SDS011;23610;59.380;24.642;2024-03-23T19:57:48;13.10;;;3.88;;
37771;SDS011;23610;59.380;24.642;2024-03-23T20:03:11;25.17;;;4.40;;
37771;SDS011;23610;59.380;24.642;2024-03-23T20:08:40;18.38;;;3.42;;
37771;SDS011;23610;59.380;24.642;2024-03-23T20:13:59;17.35;;;3.83;;
37771;SDS011;23610;59.380;24.642;2024-03-23T20:19:28;19.60;;;3.47;;
37771;SDS011;23610;59.380;24.642;2024-03-23T20:24:48;21.95;;;3.45;;
37771;SDS011;23610;59.380;24.642;2024-03-23T20:30:19;15.63;;;3.17;;
37771;SDS011;23610;59.380;24.642;2024-03-23T20:35:35;19.88;;;3.58;;
37771;SDS011;23610;59.380;24.642;2024-03-23T20:41:15;16.73;;;2.90;;
37771;SDS011;23610;59.380;24.642;2024-03-23T20:46:30;19.60;;;3.10;;
37771;SDS011;23610;59.380;24.642;2024-03-23T20:52:02;17.60;;;2.88;;
37771;SDS011;23610;59.380;24.642;2024-03-23T20:57:19;13.52;;;2.90;;
37771;SDS011;23610;59.380;24.642;2024-03-23T21:02:52;19.35;;;3.28;;
37771;SDS011;23610;59.380;24.642;2024-03-23T21:08:10;16.48;;;3.75;;
37771;SDS011;23610;59.380;24.642;2024-03-23T21:13:39;16.90;;;3.33;;
37771;SDS011;23610;59.380;24.642;2024-03-23T21:18:54;10.90;;;3.03;;
37771;SDS011;23610;59.380;24.642;2024-03-23T21:24:23;15.20;;;2.92;;
37771;SDS011;23610;59.380;24.642;2024-03-23T21:29:42;17.45;;;4.68;;
37771;SDS011;23610;59.380;24.642;2024-03-23T21:35:11;14.55;;;2.97;;
37771;SDS011;23610;59.380;24.642;2024-03-23T21:40:26;11.70;;;3.97;;
37771;SDS011;23610;59.380;24.642;2024-03-23T21:46:04;16.65;;;3.78;;
37771;SDS011;23610;59.380;24.642;2024-03-23T21:51:19;11.02;;;2.95;;
37771;SDS011;23610;59.380;24.642;2024-03-23T21:56:48;15.60;;;2.72;;
37771;SDS011;23610;59.380;24.642;2024-03-23T22:02:06;10.82;;;3.97;;
37771;SDS011;23610;59.380;24.642;2024-03-23T22:07:37;9.88;;;3.17;;
37771;SDS011;23610;59.380;24.642;2024-03-23T22:12:52;15.50;;;2.72;;
37771;SDS011;23610;59.380;24.642;2024-03-23T22:18:21;23.10;;;3.83;;
37771;SDS011;23610;59.380;24.642;2024-03-23T22:23:38;23.05;;;3.47;;
37771;SDS011;23610;59.380;24.642;2024-03-23T22:29:07;18.90;;;3.30;;
37771;SDS011;23610;59.380;24.642;2024-03-23T22:34:22;11.05;;;3.25;;
37771;SDS011;23610;59.380;24.642;2024-03-23T22:39:51;22.92;;;3.50;;
37771;SDS011;23610;59.380;24.642;2024-03-23T22:45:06;11.52;;;4.00;;
37771;SDS011;23610;59.380;24.642;2024-03-23T22:50:42;8.00;;;2.55;;
37771;SDS011;23610;59.380;24.642;2024-03-23T22:55:58;18.50;;;2.78;;
37771;SDS011;23610;59.380;24.642;2024-03-23T23:01:27;21.55;;;3.67;;
37771;SDS011;23610;59.380;24.642;2024-03-23T23:06:42;15.55;;;2.85;;
37771;SDS011;23610;59.380;24.642;2024-03-23T23:12:11;23.75;;;4.07;;
37771;SDS011;23610;59.380;24.642;2024-03-23T23:17:26;20.02;;;4.22;;
37771;SDS011;23610;59.380;24.642;2024-03-23T23:23:12;12.88;;;2.75;;
37771;SDS011;23610;59.380;24.642;2024-03-23T23:35:06;11.70;;;2.58;;
37771;SDS011;23610;59.380;24.642;2024-03-23T23:40:26;18.33;;;3.78;;
37771;SDS011;23610;59.380;24.642;2024-03-23T23:45:56;12.07;;;3.33;;
37771;SDS011;23610;59.380;24.642;2024-03-23T23:51:11;12.90;;;3.17;;
37771;SDS011;23610;59.380;24.642;2024-03-23T23:56:40;11.32;;;3.35;;
